KDLO

Delano Municipal Airport

Delano, California, USA
METAR KDLO 140815Z AUTO 14003KT 3SM BR CLR 02/01 A3016 RMK AO2 T00200005
Observed Flight Rules
Dec-14 @ 08:15 UTC (19 minutes ago) Marginal Visual Flight Rules
Wind Visibility Clouds Conditions
140° at 3 knots 3 miles
  • Clear skies
  • Mist
Temperatures Readings
Current 2°C / 36°F
Dewpoint 1°C / 34°F
Humidity 93%
Altimeter 30.16" Hg
Pressure 1021 hPa
Elevation 96
METAR KDLO 140815Z AUTO 14003KT 3SM BR CLR 02/01 A3016 RMK AO2 T00200005
Observed Flight Rules
Dec-14 @ 08:15 UTC
(19 minutes ago)
MVFR
Wind Visibility
140° at 3 knots 3 miles
Clouds
  • Clear skies
Conditions
  • Mist
Temperature Dewpoint
2°C / 36°F 1°C / 34°F
Humidity Altimeter Pressure
93% 30.16" Hg 1021 hPa